Terminal Aerodrome Forecast
Issued by NWS

Current Version | Previous Version | Graphics & Text | Print | Product List | Glossary On
Versions: 1 2 3 4 5 6 7 8 9 10 11 12 13 14 15 16 17 18 19 20 21 22 23 24 25 26 27 28
000
FTUS41 KPBZ 280530
TAFHLG
TAF
KHLG 280530Z 2806/2906 10003KT P6SM BKN050
     FM281200 17005KT P6SM BKN020
     FM281600 20008KT P6SM BKN035
     FM281900 21010KT P6SM -SHRA VCTS OVC035CB
     FM282300 20010KT P6SM VCSH BKN050
     FM290300 21010KT 5SM -SHRA BR VCTS OVC035CB=

USA.gov is the U.S. government's official web portal to all federal, state and local government web resources and services.